Time;durP1;ratioP1;P1;durP2;ratioP2;P2;SDS_P1;SDS_P2;PMS_P1;PMS_P2;Temp;Humidity;BMP_temperature;BMP_pressure;BME280_temperature;BME280_humidity;BME280_pressure;Samples;Min_cycle;Max_cycle;Signal;HPM_P1;HPM_P2
2022/09/16 00:01:00;;;;;;;4.97;3.57;;;13.40;99.90;;;;;;5059566;28;20624;-68
2022/09/16 00:03:28;;;;;;;5.77;3.90;;;13.40;99.90;;;;;;5052970;28;20205;-69
2022/09/16 00:05:55;;;;;;;5.67;3.53;;;13.40;99.90;;;;;;5051941;28;20206;-68
2022/09/16 00:08:23;;;;;;;6.90;3.33;;;13.40;99.90;;;;;;5054989;28;20236;-67
2022/09/16 00:10:51;;;;;;;5.97;3.53;;;13.40;99.90;;;;;;5049318;28;20214;-69
2022/09/16 00:13:18;;;;;;;6.07;3.97;;;13.40;99.90;;;;;;5054173;28;20210;-68
2022/09/16 00:15:45;;;;;;;6.57;4.07;;;13.50;99.90;;;;;;5055287;28;20213;-68
2022/09/16 00:18:13;;;;;;;4.23;3.53;;;13.50;99.90;;;;;;5042664;28;20216;-69
2022/09/16 00:20:44;;;;;;;4.77;3.77;;;13.50;99.90;;;;;;5047380;28;20210;-69
2022/09/16 00:23:11;;;;;;;8.00;3.90;;;13.50;99.90;;;;;;5043789;28;20222;-67
2022/09/16 00:25:39;;;;;;;9.80;4.10;;;13.50;99.90;;;;;;5053128;28;20198;-69
2022/09/16 00:28:06;;;;;;;5.53;4.00;;;13.50;99.90;;;;;;5052966;28;20206;-69
2022/09/16 00:30:33;;;;;;;6.43;4.20;;;13.50;99.90;;;;;;5050362;28;20206;-68
2022/09/16 00:32:59;;;;;;;5.27;3.20;;;13.50;99.90;;;;;;5051789;28;20240;-69
2022/09/16 00:35:26;;;;;;;4.17;3.73;;;13.50;99.90;;;;;;5046939;28;20255;-68
2022/09/16 00:37:53;;;;;;;5.37;4.10;;;13.40;99.90;;;;;;5052503;28;20202;-68
2022/09/16 00:40:20;;;;;;;6.70;3.90;;;13.40;99.90;;;;;;5047196;28;20550;-67
2022/09/16 00:42:48;;;;;;;5.13;3.80;;;13.40;99.90;;;;;;5044603;28;20548;-68
2022/09/16 00:45:18;;;;;;;5.27;3.33;;;13.40;99.90;;;;;;5040661;28;20666;-68
2022/09/16 00:47:48;;;;;;;6.67;3.90;;;13.40;99.90;;;;;;5037852;28;20210;-68
2022/09/16 00:50:19;;;;;;;8.07;3.83;;;13.40;99.90;;;;;;5048785;28;20571;-66
2022/09/16 00:52:48;;;;;;;4.70;3.23;;;13.40;99.90;;;;;;5051732;28;20210;-67
2022/09/16 00:55:19;;;;;;;4.37;3.33;;;13.40;99.90;;;;;;5049641;28;20234;-67
2022/09/16 00:57:48;;;;;;;5.43;3.47;;;13.30;99.90;;;;;;5051348;28;20571;-67
2022/09/16 01:00:15;;;;;;;6.80;3.40;;;13.30;99.90;;;;;;5048837;28;20201;-67
2022/09/16 01:02:44;;;;;;;4.53;3.37;;;13.30;99.90;;;;;;5052469;28;20228;-68
2022/09/16 01:05:15;;;;;;;4.03;3.37;;;13.30;99.90;;;;;;5051245;28;20534;-68
2022/09/16 01:07:45;;;;;;;6.03;3.20;;;13.30;99.90;;;;;;5051132;28;20201;-68
2022/09/16 01:10:13;;;;;;;4.33;3.27;;;13.30;99.90;;;;;;5049471;28;20209;-69
2022/09/16 01:12:42;;;;;;;9.53;3.40;;;13.30;99.90;;;;;;5050742;28;20565;-68
2022/09/16 01:15:13;;;;;;;5.27;3.27;;;13.40;99.90;;;;;;5058448;28;20642;-68
2022/09/16 01:17:54;;;;;;;5.33;3.23;;;13.40;99.90;;;;;;5051414;28;20205;-67
2022/09/16 01:20:52;;;;;;;5.50;3.50;;;13.40;99.90;;;;;;5050295;28;20202;-68
2022/09/16 01:23:44;;;;;;;6.60;3.43;;;13.40;99.90;;;;;;5050747;28;20233;-69
2022/09/16 01:26:35;;;;;;;4.90;2.90;;;13.40;99.90;;;;;;5045598;28;20212;-69
2022/09/16 01:29:26;;;;;;;5.67;3.27;;;13.40;99.90;;;;;;5050818;28;20619;-68
2022/09/16 01:32:04;;;;;;;4.70;3.10;;;13.40;99.90;;;;;;5037719;28;20562;-67
2022/09/16 01:34:38;;;;;;;7.23;2.93;;;13.40;99.90;;;;;;5050693;28;20217;-69
2022/09/16 01:37:12;;;;;;;6.13;3.00;;;13.40;99.90;;;;;;5051919;28;20229;-68
2022/09/16 01:39:47;;;;;;;5.27;3.13;;;13.30;99.90;;;;;;5064202;28;20670;-68
2022/09/16 01:42:25;;;;;;;4.53;2.60;;;13.30;99.90;;;;;;5050657;28;20202;-68
2022/09/16 01:45:00;;;;;;;3.90;2.87;;;13.30;99.90;;;;;;5057600;28;20374;-68
2022/09/16 01:47:35;;;;;;;4.37;2.93;;;13.20;99.90;;;;;;5040547;28;20205;-68
2022/09/16 01:50:07;;;;;;;2.73;2.50;;;13.20;99.90;;;;;;5036702;28;20202;-68
2022/09/16 01:52:43;;;;;;;3.43;2.60;;;13.20;99.90;;;;;;5053344;28;20539;-68
2022/09/16 01:55:16;;;;;;;3.73;2.73;;;13.20;99.90;;;;;;5052943;28;20666;-69
2022/09/16 01:57:50;;;;;;;3.17;2.70;;;13.20;99.90;;;;;;5050640;28;20566;-69
2022/09/16 02:00:18;;;;;;;6.17;3.07;;;13.20;99.90;;;;;;5038080;28;20245;-68
2022/09/16 02:02:50;;;;;;;4.20;2.83;;;13.20;99.90;;;;;;5049578;28;20241;-68
2022/09/16 02:05:21;;;;;;;5.20;2.77;;;13.20;99.90;;;;;;5051796;28;20216;-68
2022/09/16 02:07:52;;;;;;;4.10;2.83;;;13.20;99.90;;;;;;5051697;28;20202;-68
2022/09/16 02:10:23;;;;;;;9.00;3.00;;;13.20;99.90;;;;;;5051882;28;20194;-68
2022/09/16 02:12:52;;;;;;;3.83;2.57;;;13.20;99.90;;;;;;5052612;28;20289;-68
2022/09/16 02:15:22;;;;;;;3.37;2.50;;;13.20;99.90;;;;;;5055357;28;20225;-68
2022/09/16 02:17:58;;;;;;;4.20;2.70;;;13.20;99.90;;;;;;5052876;28;20252;-68
2022/09/16 02:20:28;;;;;;;4.97;2.47;;;13.20;99.90;;;;;;5052282;28;20205;-69
2022/09/16 02:23:00;;;;;;;3.37;2.70;;;13.20;99.90;;;;;;5060912;28;20229;-68
2022/09/16 02:25:29;;;;;;;4.17;2.60;;;13.20;99.90;;;;;;5057324;28;20224;-68
2022/09/16 02:27:57;;;;;;;3.80;2.30;;;13.20;99.90;;;;;;5066753;28;20651;-68
2022/09/16 02:30:24;;;;;;;5.63;2.47;;;13.20;99.90;;;;;;5042967;28;20634;-68
2022/09/16 02:32:57;;;;;;;4.43;2.37;;;13.20;99.90;;;;;;5044998;28;20197;-68
2022/09/16 02:35:26;;;;;;;5.10;2.40;;;13.20;99.90;;;;;;5055401;28;20608;-67
2022/09/16 02:37:58;;;;;;;3.33;2.43;;;13.10;99.90;;;;;;5054677;28;20233;-70
2022/09/16 02:40:29;;;;;;;3.37;2.77;;;13.10;99.90;;;;;;5063779;28;20206;-68
2022/09/16 02:42:57;;;;;;;3.93;2.20;;;13.10;99.90;;;;;;5055670;28;20689;-68
2022/09/16 02:45:42;;;;;;;3.20;2.40;;;13.00;99.90;;;;;;5054135;28;20202;-68
2022/09/16 02:48:19;;;;;;;4.43;2.40;;;13.00;99.90;;;;;;5055491;28;20221;-68
2022/09/16 02:50:53;;;;;;;2.63;2.43;;;13.00;99.90;;;;;;5056150;28;20201;-67
2022/09/16 02:53:34;;;;;;;4.00;3.10;;;13.00;99.90;;;;;;5054470;28;20198;-69
2022/09/16 02:56:06;;;;;;;6.30;2.90;;;13.00;99.90;;;;;;5056198;28;20641;-68
2022/09/16 02:58:33;;;;;;;4.77;2.90;;;13.00;99.90;;;;;;5056344;28;20214;-69
2022/09/16 03:01:00;;;;;;;4.77;2.87;;;13.00;99.90;;;;;;5053874;28;20198;-68
2022/09/16 03:03:29;;;;;;;2.83;2.50;;;13.00;99.90;;;;;;5055072;28;20213;-66
2022/09/16 03:06:17;;;;;;;3.50;2.83;;;13.00;99.90;;;;;;5059494;28;20217;-68
2022/09/16 03:08:45;;;;;;;4.87;3.03;;;13.00;99.90;;;;;;5055965;28;20224;-67
2022/09/16 03:11:33;;;;;;;3.10;2.67;;;12.90;99.90;;;;;;5056836;28;20629;-67
2022/09/16 03:14:18;;;;;;;4.63;2.77;;;13.00;99.90;;;;;;5064515;28;20681;-69
2022/09/16 03:16:53;;;;;;;7.47;2.97;;;13.00;99.90;;;;;;5054562;28;20194;-68
2022/09/16 03:19:26;;;;;;;5.47;2.77;;;13.00;99.90;;;;;;5051242;28;20201;-68
2022/09/16 03:22:01;;;;;;;4.07;2.63;;;13.00;99.90;;;;;;5050905;28;20226;-68
2022/09/16 03:24:42;;;;;;;6.47;3.00;;;13.00;99.90;;;;;;5055549;28;20205;-68
2022/09/16 03:27:15;;;;;;;6.60;2.90;;;13.00;99.90;;;;;;5053259;28;20201;-68
2022/09/16 03:29:46;;;;;;;3.97;2.90;;;13.00;99.90;;;;;;5054221;28;20520;-67
2022/09/16 03:32:20;;;;;;;4.50;2.83;;;12.90;99.90;;;;;;5050816;28;20209;-69
2022/09/16 03:34:54;;;;;;;6.43;2.90;;;12.90;99.90;;;;;;5045931;28;20218;-68
2022/09/16 03:37:23;;;;;;;3.87;3.07;;;12.90;99.90;;;;;;5053523;28;20256;-66
2022/09/16 03:39:52;;;;;;;4.60;3.00;;;12.80;99.90;;;;;;5054094;28;20198;-68
2022/09/16 03:42:20;;;;;;;7.23;3.37;;;12.80;99.90;;;;;;5054238;28;20206;-68
2022/09/16 03:44:47;;;;;;;3.07;2.70;;;12.80;99.90;;;;;;5049803;28;20217;-68
2022/09/16 03:47:14;;;;;;;3.60;2.97;;;12.80;99.90;;;;;;5049732;28;20945;-67
2022/09/16 03:49:41;;;;;;;5.30;3.10;;;12.70;99.90;;;;;;5048935;28;20459;-68
2022/09/16 03:52:09;;;;;;;3.40;2.57;;;12.70;99.90;;;;;;5054738;28;20210;-67
2022/09/16 03:54:37;;;;;;;3.23;2.90;;;12.70;99.90;;;;;;5058833;28;20201;-67
2022/09/16 03:57:05;;;;;;;6.23;2.83;;;12.60;99.90;;;;;;5063485;28;20206;-68
2022/09/16 03:59:31;;;;;;;4.33;3.00;;;12.60;99.90;;;;;;5057497;28;20820;-68
2022/09/16 04:02:00;;;;;;;6.83;3.30;;;12.60;99.90;;;;;;5056140;28;20202;-68
2022/09/16 04:04:27;;;;;;;5.43;3.00;;;12.50;99.90;;;;;;5057101;28;20209;-68
2022/09/16 04:06:53;;;;;;;4.97;3.00;;;12.60;99.90;;;;;;5057916;28;20241;-68
2022/09/16 04:09:22;;;;;;;5.83;2.90;;;12.50;99.90;;;;;;5048870;28;20210;-68
2022/09/16 04:11:48;;;;;;;2.80;2.50;;;12.50;99.90;;;;;;5054235;28;20209;-69
2022/09/16 04:14:15;;;;;;;6.03;3.73;;;12.60;99.90;;;;;;5054846;28;20206;-68
2022/09/16 04:16:42;;;;;;;5.70;3.40;;;12.50;99.90;;;;;;5048288;28;20225;-68
2022/09/16 04:19:11;;;;;;;7.20;3.30;;;12.50;99.90;;;;;;5051158;28;20213;-69
2022/09/16 04:21:38;;;;;;;7.23;3.33;;;12.50;99.90;;;;;;5054223;28;20214;-69
2022/09/16 04:24:05;;;;;;;4.23;3.30;;;12.50;99.90;;;;;;5054371;28;20210;-68
2022/09/16 04:26:33;;;;;;;5.70;3.10;;;12.50;99.90;;;;;;5067804;28;20209;-68
2022/09/16 04:29:00;;;;;;;5.00;3.20;;;12.40;99.90;;;;;;5055170;28;20213;-68
2022/09/16 04:31:27;;;;;;;4.80;3.40;;;12.50;99.90;;;;;;5064738;28;20216;-68
2022/09/16 04:33:54;;;;;;;5.07;3.30;;;12.40;99.90;;;;;;5056370;28;20214;-69
2022/09/16 04:36:21;;;;;;;6.37;3.20;;;12.40;99.90;;;;;;5045084;28;20247;-69
2022/09/16 04:38:48;;;;;;;5.23;3.10;;;12.40;99.90;;;;;;5063414;28;20205;-69
2022/09/16 04:41:18;;;;;;;3.97;3.13;;;12.50;99.90;;;;;;5052939;28;20209;-68
2022/09/16 04:43:46;;;;;;;7.27;2.87;;;12.50;99.90;;;;;;5051776;28;20230;-66
2022/09/16 04:46:13;;;;;;;5.87;3.47;;;12.50;99.90;;;;;;5041761;28;20292;-68
2022/09/16 04:48:40;;;;;;;6.07;3.60;;;12.40;99.90;;;;;;5052562;28;20673;-67
2022/09/16 04:51:09;;;;;;;5.03;3.53;;;12.50;99.90;;;;;;5046927;28;20218;-69
2022/09/16 04:53:36;;;;;;;5.27;3.80;;;12.50;99.90;;;;;;5032674;28;20210;-69
2022/09/16 04:56:09;;;;;;;5.47;3.47;;;12.50;99.90;;;;;;5049082;28;20574;-68
2022/09/16 04:58:37;;;;;;;4.40;3.30;;;12.50;99.90;;;;;;5053440;28;20288;-68
2022/09/16 05:01:07;;;;;;;6.23;3.43;;;12.50;99.90;;;;;;5053452;28;20221;-69
2022/09/16 05:03:33;;;;;;;4.07;3.00;;;12.50;99.90;;;;;;5054940;28;20198;-68
2022/09/16 05:06:09;;;;;;;3.90;2.90;;;12.50;99.90;;;;;;5056235;28;20204;-69
2022/09/16 05:08:36;;;;;;;4.07;3.07;;;12.50;99.90;;;;;;5040916;28;20206;-66
2022/09/16 05:11:05;;;;;;;6.13;3.23;;;12.50;99.90;;;;;;5049446;28;20217;-66
2022/09/16 05:13:31;;;;;;;4.60;3.30;;;12.50;99.90;;;;;;5053476;28;20237;-68
2022/09/16 05:16:02;;;;;;;9.13;3.20;;;12.50;99.90;;;;;;5044389;28;20242;-67
2022/09/16 05:18:30;;;;;;;3.40;3.10;;;12.50;99.90;;;;;;5046893;28;20202;-66
2022/09/16 05:20:59;;;;;;;5.97;3.57;;;12.50;99.90;;;;;;5048026;28;20706;-72
2022/09/16 05:23:26;;;;;;;3.83;2.63;;;12.50;99.90;;;;;;5046457;28;20332;-75
2022/09/16 05:25:53;;;;;;;5.60;3.00;;;12.60;99.90;;;;;;5050853;28;20224;-74
2022/09/16 05:28:20;;;;;;;5.57;2.80;;;12.60;99.90;;;;;;5046250;28;20292;-74
2022/09/16 05:30:47;;;;;;;3.83;2.93;;;12.60;99.90;;;;;;5049245;28;20497;-73
2022/09/16 05:33:14;;;;;;;9.30;3.70;;;12.60;99.90;;;;;;5049484;28;20229;-74
2022/09/16 05:35:42;;;;;;;4.37;3.07;;;12.70;99.90;;;;;;5045887;28;20234;-74
2022/09/16 05:38:09;;;;;;;7.07;2.60;;;12.70;99.90;;;;;;5051838;28;20206;-74
2022/09/16 05:40:35;;;;;;;2.70;2.50;;;12.80;99.90;;;;;;5048478;28;20201;-74
2022/09/16 05:43:02;;;;;;;4.37;3.20;;;12.70;99.90;;;;;;5053847;28;20189;-74
2022/09/16 05:45:29;;;;;;;3.50;2.70;;;12.80;99.90;;;;;;5050491;28;20198;-74
2022/09/16 05:47:56;;;;;;;3.50;2.40;;;12.80;99.90;;;;;;5052261;28;20210;-75
2022/09/16 05:50:22;;;;;;;10.30;3.07;;;12.90;99.90;;;;;;5053458;28;20493;-74
2022/09/16 05:52:51;;;;;;;4.53;2.77;;;12.90;99.90;;;;;;5050362;28;20608;-75
2022/09/16 05:55:17;;;;;;;4.93;2.50;;;12.90;99.90;;;;;;5047488;28;20222;-72
2022/09/16 05:57:45;;;;;;;4.30;2.80;;;13.00;99.90;;;;;;5045940;28;20206;-76
2022/09/16 06:00:13;;;;;;;6.20;2.80;;;13.00;99.90;;;;;;5050454;28;20206;-75
2022/09/16 06:02:39;;;;;;;7.20;2.73;;;13.10;99.90;;;;;;5048892;28;20210;-74
2022/09/16 06:05:08;;;;;;;5.33;2.93;;;13.20;99.90;;;;;;5052764;28;20236;-73
2022/09/16 06:07:35;;;;;;;4.13;2.53;;;13.20;99.90;;;;;;5058249;28;20205;-72
2022/09/16 06:10:05;;;;;;;4.50;2.77;;;13.30;99.90;;;;;;5055811;28;20211;-72
2022/09/16 06:12:32;;;;;;;4.80;2.63;;;13.30;99.90;;;;;;5057275;28;20197;-72
2022/09/16 06:14:59;;;;;;;5.67;2.63;;;13.30;99.90;;;;;;5055253;28;20789;-72
2022/09/16 06:17:26;;;;;;;5.07;2.70;;;13.40;99.90;;;;;;5068204;28;20691;-73
2022/09/16 06:19:53;;;;;;;5.50;2.63;;;13.40;99.90;;;;;;5053900;28;20222;-72
2022/09/16 06:22:20;;;;;;;4.37;2.33;;;13.40;99.90;;;;;;5038432;28;20213;-73
2022/09/16 06:24:47;;;;;;;4.70;2.40;;;13.40;99.90;;;;;;5053714;28;20292;-73
2022/09/16 06:27:16;;;;;;;6.10;3.27;;;13.50;99.90;;;;;;5051991;28;20206;-72
2022/09/16 06:29:43;;;;;;;3.50;2.33;;;13.60;99.90;;;;;;5052753;28;20209;-72
2022/09/16 06:32:10;;;;;;;5.17;2.60;;;13.50;99.90;;;;;;5066840;28;20212;-72
2022/09/16 06:34:37;;;;;;;4.33;2.60;;;13.60;99.90;;;;;;5048534;28;20293;-72
2022/09/16 06:37:04;;;;;;;4.70;2.50;;;13.60;99.90;;;;;;5043400;28;20688;-77
2022/09/16 06:39:31;;;;;;;5.77;2.63;;;13.70;99.90;;;;;;5051361;28;20292;-75
2022/09/16 06:41:57;;;;;;;3.97;2.40;;;13.70;99.90;;;;;;5047473;28;20214;-74
2022/09/16 06:44:26;;;;;;;3.20;2.30;;;13.70;99.90;;;;;;5046079;28;20212;-75
2022/09/16 06:46:52;;;;;;;3.83;1.90;;;13.90;99.90;;;;;;5048998;28;20637;-71
2022/09/16 06:49:19;;;;;;;4.10;2.40;;;13.90;99.90;;;;;;5050219;28;20594;-75
2022/09/16 06:51:46;;;;;;;4.20;2.43;;;13.90;99.90;;;;;;5037926;28;20232;-76
2022/09/16 06:54:13;;;;;;;4.53;2.50;;;13.90;99.90;;;;;;5040847;28;20206;-73
2022/09/16 06:56:40;;;;;;;4.20;1.70;;;14.00;99.90;;;;;;5045558;28;21194;-69
2022/09/16 06:59:07;;;;;;;3.40;1.93;;;14.00;99.90;;;;;;5041657;28;20219;-71
2022/09/16 07:01:36;;;;;;;3.47;2.40;;;14.10;99.90;;;;;;5043496;28;20595;-70
2022/09/16 07:04:05;;;;;;;7.03;2.20;;;14.20;99.90;;;;;;5044226;28;20209;-73
2022/09/16 07:06:32;;;;;;;3.70;1.93;;;14.20;99.90;;;;;;5044705;28;20552;-71
2022/09/16 07:08:59;;;;;;;6.67;2.20;;;14.40;99.90;;;;;;5056372;28;20202;-72
2022/09/16 07:11:26;;;;;;;5.10;2.10;;;14.40;99.90;;;;;;5043084;28;20212;-73
2022/09/16 07:13:53;;;;;;;7.07;2.03;;;14.50;99.90;;;;;;5050333;28;20208;-71
2022/09/16 07:16:21;;;;;;;3.27;1.90;;;14.60;99.90;;;;;;5051545;28;20242;-74
2022/09/16 07:18:53;;;;;;;4.70;1.87;;;14.70;99.90;;;;;;5049648;28;20210;-74
2022/09/16 07:21:21;;;;;;;8.17;1.93;;;14.80;99.90;;;;;;5056851;28;20264;-72
2022/09/16 07:23:48;;;;;;;4.50;1.80;;;14.90;99.90;;;;;;5045449;28;20609;-70
2022/09/16 07:26:17;;;;;;;5.80;1.40;;;15.00;99.90;;;;;;5047658;28;20283;-76
2022/09/16 07:28:46;;;;;;;9.07;1.50;;;15.10;99.90;;;;;;5049641;28;20658;-76
2022/09/16 07:31:15;;;;;;;3.87;1.27;;;15.20;99.90;;;;;;5039095;28;20214;-77
2022/09/16 07:33:47;;;;;;;5.23;1.50;;;15.30;99.90;;;;;;5053988;28;20213;-77
2022/09/16 07:36:18;;;;;;;6.57;1.70;;;15.50;99.90;;;;;;5048664;28;20613;-77
2022/09/16 07:38:45;;;;;;;3.53;1.20;;;15.60;99.90;;;;;;5044914;28;20262;-78
2022/09/16 07:41:14;;;;;;;6.80;1.30;;;15.80;99.90;;;;;;5047543;28;20633;-74
2022/09/16 07:43:42;;;;;;;2.77;1.23;;;15.90;99.90;;;;;;5051875;28;20209;-74
2022/09/16 07:46:12;;;;;;;4.93;1.53;;;16.00;99.90;;;;;;5046568;28;20672;-74
2022/09/16 07:48:39;;;;;;;6.40;1.40;;;16.00;99.90;;;;;;5056158;28;20208;-73
2022/09/16 07:51:09;;;;;;;3.97;1.30;;;16.10;99.90;;;;;;5059551;28;20213;-78
2022/09/16 07:53:38;;;;;;;5.80;1.40;;;16.10;99.90;;;;;;5056036;28;20283;-76
2022/09/16 07:56:07;;;;;;;6.40;2.00;;;16.10;99.90;;;;;;5058433;28;20221;-74
2022/09/16 07:58:34;;;;;;;3.00;1.07;;;16.10;99.90;;;;;;5055105;28;20236;-73
2022/09/16 08:01:02;;;;;;;4.30;1.17;;;16.10;99.90;;;;;;5055107;28;20279;-68
2022/09/16 08:03:29;;;;;;;5.80;1.30;;;16.20;99.90;;;;;;5052021;28;20213;-72
2022/09/16 08:06:00;;;;;;;3.90;1.33;;;16.40;99.90;;;;;;5056059;28;20224;-73
2022/09/16 08:08:27;;;;;;;4.55;1.23;;;16.50;99.90;;;;;;5055908;28;20575;-74
2022/09/16 08:10:56;;;;;;;4.70;1.57;;;16.60;99.90;;;;;;5047221;28;20209;-73
2022/09/16 08:13:24;;;;;;;3.80;1.10;;;16.80;99.90;;;;;;5048736;28;20741;-77
2022/09/16 08:15:52;;;;;;;5.57;1.20;;;16.80;99.90;;;;;;5047116;28;20210;-76
2022/09/16 08:18:19;;;;;;;4.80;1.42;;;16.80;99.90;;;;;;5046567;28;20655;-77
2022/09/16 08:20:46;;;;;;;5.15;1.20;;;16.90;99.90;;;;;;5050427;28;20217;-77
2022/09/16 08:23:13;;;;;;;7.43;1.65;;;16.90;99.90;;;;;;5048653;28;20638;-76
2022/09/16 08:25:40;;;;;;;4.82;1.65;;;17.10;99.90;;;;;;5049666;28;20229;-77
2022/09/16 08:28:12;;;;;;;3.08;1.20;;;17.20;99.90;;;;;;5050979;28;20206;-74
2022/09/16 08:30:39;;;;;;;5.05;1.35;;;17.40;99.90;;;;;;5050178;28;20209;-75
2022/09/16 08:33:06;;;;;;;3.45;1.20;;;17.60;99.90;;;;;;5049247;28;20221;-76
2022/09/16 08:35:34;;;;;;;3.25;1.33;;;17.80;99.90;;;;;;5052140;28;20259;-75
2022/09/16 08:38:01;;;;;;;5.72;1.85;;;17.80;99.90;;;;;;5053585;28;20301;-75
2022/09/16 08:40:32;;;;;;;2.30;1.00;;;17.80;99.90;;;;;;5053557;28;20297;-76
2022/09/16 08:43:08;;;;;;;3.42;1.20;;;18.00;99.90;;;;;;5051797;28;21645;-70
2022/09/16 08:45:47;;;;;;;3.97;1.08;;;18.20;99.90;;;;;;5051339;28;20206;-77
2022/09/16 08:48:33;;;;;;;3.67;1.00;;;18.40;99.90;;;;;;5049492;28;20213;-76
2022/09/16 08:51:01;;;;;;;2.97;1.15;;;18.40;99.00;;;;;;5047131;28;20210;-75
2022/09/16 08:53:38;;;;;;;6.38;1.67;;;18.30;98.50;;;;;;5045463;28;20285;-74
2022/09/16 08:56:10;;;;;;;6.18;1.42;;;18.20;97.90;;;;;;5051219;28;20209;-70
2022/09/16 08:58:42;;;;;;;3.10;1.00;;;18.20;97.50;;;;;;5051020;28;20201;-76
2022/09/16 09:01:20;;;;;;;8.60;1.42;;;18.30;97.70;;;;;;5045886;28;20197;-73
2022/09/16 09:03:48;;;;;;;4.28;1.08;;;18.40;97.60;;;;;;5046105;28;20290;-74
2022/09/16 09:06:30;;;;;;;4.18;1.40;;;18.30;96.40;;;;;;5045669;28;20201;-74
2022/09/16 09:09:07;;;;;;;1.48;1.10;;;18.30;96.60;;;;;;5052426;28;20206;-74
2022/09/16 09:11:41;;;;;;;4.63;1.08;;;18.50;97.30;;;;;;5057921;28;20275;-73
2022/09/16 09:14:26;;;;;;;5.05;1.40;;;18.70;95.30;;;;;;5049583;28;20205;-74
2022/09/16 09:17:05;;;;;;;7.32;1.23;;;18.80;94.80;;;;;;5048363;28;20272;-74
2022/09/16 09:19:48;;;;;;;7.38;1.20;;;20.20;96.80;;;;;;5041993;28;20638;-74
2022/09/16 09:22:27;;;;;;;5.03;1.23;;;21.40;92.40;;;;;;5044019;28;20236;-74
2022/09/16 09:25:08;;;;;;;7.07;1.35;;;22.20;88.50;;;;;;5043111;28;20217;-75
2022/09/16 09:27:41;;;;;;;3.10;1.10;;;23.00;87.50;;;;;;5036638;28;20507;-73
2022/09/16 09:30:15;;;;;;;1.85;0.88;;;24.60;75.80;;;;;;5047375;28;20214;-74
2022/09/16 09:32:59;;;;;;;2.72;1.30;;;24.50;71.10;;;;;;5065424;28;20196;-74
2022/09/16 09:35:50;;;;;;;1.98;1.00;;;25.70;72.90;;;;;;5047363;28;20592;-75
2022/09/16 09:38:53;;;;;;;2.67;1.08;;;27.90;60.80;;;;;;5061353;28;20229;-76
2022/09/16 09:41:27;;;;;;;4.53;1.30;;;30.40;53.20;;;;;;5055467;28;20207;-75
2022/09/16 09:43:58;;;;;;;2.42;0.73;;;30.40;48.30;;;;;;5060073;28;20221;-75
2022/09/16 09:46:31;;;;;;;2.47;0.93;;;28.80;49.10;;;;;;5055693;28;20209;-73
2022/09/16 09:49:08;;;;;;;3.78;1.15;;;28.40;52.70;;;;;;5054127;28;20202;-75
2022/09/16 09:51:39;;;;;;;3.60;0.88;;;30.00;50.30;;;;;;5048701;28;20200;-75
2022/09/16 09:54:26;;;;;;;2.47;1.05;;;31.20;47.40;;;;;;5053371;28;20206;-74
2022/09/16 09:56:59;;;;;;;5.68;1.42;;;32.20;44.90;;;;;;5049503;28;20229;-76
2022/09/16 09:59:30;;;;;;;4.75;1.10;;;31.70;42.80;;;;;;5054773;28;20205;-75
2022/09/16 10:02:00;;;;;;;4.10;1.13;;;30.60;45.00;;;;;;5050300;28;20263;-75
2022/09/16 10:04:36;;;;;;;4.05;1.13;;;29.20;45.30;;;;;;5047566;28;20274;-75
2022/09/16 10:07:05;;;;;;;2.60;1.27;;;27.50;47.70;;;;;;5050678;28;20560;-76
2022/09/16 10:09:34;;;;;;;5.55;1.20;;;26.00;50.60;;;;;;5065233;28;20615;-73
2022/09/16 10:12:01;;;;;;;4.80;1.45;;;25.00;53.20;;;;;;5050226;28;20716;-71
2022/09/16 10:14:32;;;;;;;3.53;1.30;;;24.20;52.80;;;;;;5037409;28;20213;-71
2022/09/16 10:17:02;;;;;;;3.92;0.98;;;23.30;54.50;;;;;;5042655;28;20246;-71
2022/09/16 10:19:34;;;;;;;3.88;0.95;;;22.50;56.00;;;;;;5055357;28;20232;-70
2022/09/16 10:22:11;;;;;;;3.13;1.08;;;21.90;57.80;;;;;;5057813;28;20226;-72
2022/09/16 10:24:39;;;;;;;3.15;1.13;;;21.70;59.10;;;;;;5050086;28;20568;-71
2022/09/16 10:27:21;;;;;;;4.93;1.38;;;21.70;60.30;;;;;;5056000;28;20199;-70
2022/09/16 10:29:48;;;;;;;2.47;1.38;;;22.10;61.00;;;;;;5043480;28;20213;-72
2022/09/16 10:32:18;;;;;;;4.22;1.40;;;22.00;59.30;;;;;;5044691;28;20209;-72
2022/09/16 10:34:47;;;;;;;6.05;1.05;;;21.60;60.40;;;;;;5044262;28;20214;-73
2022/09/16 10:37:18;;;;;;;2.08;1.00;;;21.10;62.00;;;;;;5051254;28;20567;-72
2022/09/16 10:39:51;;;;;;;4.13;1.00;;;21.10;64.70;;;;;;5045408;28;20222;-72
2022/09/16 10:42:21;;;;;;;3.15;1.10;;;22.10;65.40;;;;;;5044460;28;20718;-73
2022/09/16 10:44:50;;;;;;;2.17;0.80;;;22.80;60.40;;;;;;5042065;28;20723;-72
2022/09/16 10:47:21;;;;;;;3.83;1.20;;;23.10;58.60;;;;;;5045669;28;20225;-71
2022/09/16 10:49:54;;;;;;;3.88;1.30;;;22.80;58.40;;;;;;5049015;28;20216;-72
2022/09/16 10:52:23;;;;;;;5.30;1.10;;;22.60;59.90;;;;;;5050385;28;20205;-72
2022/09/16 10:54:50;;;;;;;3.10;1.00;;;23.00;61.90;;;;;;5050049;28;20213;-72
2022/09/16 10:57:23;;;;;;;3.20;1.00;;;23.90;59.70;;;;;;5050749;28;20609;-70
2022/09/16 10:59:57;;;;;;;2.35;0.82;;;25.00;57.30;;;;;;5049680;28;20264;-72
2022/09/16 11:02:43;;;;;;;1.13;0.73;;;25.60;54.40;;;;;;5048439;28;20689;-73
2022/09/16 11:05:17;;;;;;;4.18;1.13;;;26.20;53.80;;;;;;5045425;28;20202;-72
2022/09/16 11:07:52;;;;;;;1.75;0.82;;;26.70;52.40;;;;;;5043662;28;20199;-72
2022/09/16 11:10:27;;;;;;;2.33;1.00;;;26.90;51.00;;;;;;5046834;28;20201;-73
2022/09/16 11:13:14;;;;;;;1.63;0.60;;;26.90;50.50;;;;;;5047405;28;20297;-74
2022/09/16 11:15:55;;;;;;;1.67;0.73;;;26.70;49.30;;;;;;5046960;28;20217;-72
2022/09/16 11:18:35;;;;;;;4.05;0.80;;;26.60;49.40;;;;;;5051224;28;20217;-73
2022/09/16 11:21:24;;;;;;;1.33;0.82;;;26.30;48.60;;;;;;5043988;28;20202;-74
2022/09/16 11:24:04;;;;;;;2.65;0.80;;;26.20;49.00;;;;;;5052144;28;20231;-72
2022/09/16 11:26:39;;;;;;;2.30;1.08;;;26.30;49.40;;;;;;5039671;28;20249;-74
2022/09/16 11:29:16;;;;;;;3.17;0.68;;;26.20;50.20;;;;;;5054573;28;20534;-73
2022/09/16 11:31:56;;;;;;;1.20;0.77;;;26.00;50.00;;;;;;5049811;28;20256;-74
2022/09/16 11:34:35;;;;;;;3.53;0.70;;;25.60;50.10;;;;;;5048772;28;20210;-75
2022/09/16 11:37:13;;;;;;;4.63;0.98;;;25.00;50.60;;;;;;5057778;28;20237;-75
2022/09/16 11:40:06;;;;;;;2.05;0.75;;;24.50;50.90;;;;;;5057262;28;20667;-74
2022/09/16 11:42:35;;;;;;;1.10;0.70;;;24.40;51.30;;;;;;5052315;28;20209;-76
2022/09/16 11:45:15;;;;;;;3.10;0.90;;;24.60;51.00;;;;;;5055887;28;20242;-73
2022/09/16 11:47:58;;;;;;;1.85;0.80;;;24.80;50.40;;;;;;5058432;28;20650;-74
2022/09/16 11:50:37;;;;;;;3.60;0.70;;;24.70;49.50;;;;;;5044009;28;20664;-74
2022/09/16 11:53:26;;;;;;;1.10;0.70;;;24.60;48.80;;;;;;5055505;28;20205;-75
2022/09/16 11:55:58;;;;;;;0.85;0.60;;;24.30;49.00;;;;;;5056290;28;20284;-76
2022/09/16 11:58:33;;;;;;;1.98;0.70;;;24.00;49.40;;;;;;5058167;28;20219;-75
2022/09/16 12:01:06;;;;;;;4.22;0.90;;;23.70;50.00;;;;;;5043497;28;20601;-75
2022/09/16 12:03:40;;;;;;;2.60;0.98;;;23.20;50.90;;;;;;5060947;28;20205;-73
2022/09/16 12:06:11;;;;;;;1.27;0.80;;;23.30;51.70;;;;;;5049970;28;20202;-74
2022/09/16 12:08:50;;;;;;;3.00;0.77;;;23.60;51.70;;;;;;5049273;28;20204;-74
2022/09/16 12:11:21;;;;;;;0.68;0.57;;;24.00;51.40;;;;;;5055706;28;20205;-74
2022/09/16 12:13:52;;;;;;;4.20;0.70;;;24.30;50.70;;;;;;5046928;28;21087;-73
2022/09/16 12:16:27;;;;;;;2.40;0.60;;;24.50;50.20;;;;;;5050363;28;20210;-70
2022/09/16 12:18:59;;;;;;;3.85;0.75;;;24.70;48.70;;;;;;5049214;28;20217;-75
2022/09/16 12:21:30;;;;;;;3.78;0.80;;;24.80;48.40;;;;;;5044891;28;20213;-72
2022/09/16 12:24:02;;;;;;;1.73;0.63;;;24.60;48.80;;;;;;5048297;28;20209;-73
2022/09/16 12:26:33;;;;;;;2.45;0.80;;;24.30;49.10;;;;;;5042844;28;20659;-75
2022/09/16 12:29:05;;;;;;;1.73;0.77;;;23.70;49.30;;;;;;5050765;28;20642;-76
2022/09/16 12:31:37;;;;;;;0.80;0.50;;;23.00;50.20;;;;;;5053284;28;20582;-73
2022/09/16 12:34:13;;;;;;;2.97;0.80;;;22.90;51.60;;;;;;5054787;28;20206;-74
2022/09/16 12:36:42;;;;;;;2.92;0.90;;;23.10;51.90;;;;;;5043509;28;21012;-76
2022/09/16 12:39:12;;;;;;;0.98;0.70;;;23.40;52.40;;;;;;5047907;28;20743;-70
2022/09/16 12:41:56;;;;;;;5.07;1.05;;;23.70;51.90;;;;;;5053272;28;20579;-75
2022/09/16 12:44:49;;;;;;;0.85;0.60;;;23.80;51.40;;;;;;5049466;28;20203;-75
2022/09/16 12:47:45;;;;;;;1.35;0.90;;;23.70;51.20;;;;;;5044786;28;20198;-76
2022/09/16 12:50:46;;;;;;;0.65;0.60;;;23.20;51.80;;;;;;5058286;28;20198;-74
2022/09/16 12:53:45;;;;;;;1.45;0.95;;;22.60;53.00;;;;;;5043497;28;20768;-70
2022/09/16 12:56:21;;;;;;;3.30;0.65;;;22.10;54.50;;;;;;5047147;28;20234;-74
2022/09/16 12:59:13;;;;;;;4.10;1.00;;;21.60;54.40;;;;;;5054733;28;20705;-74
2022/09/16 13:01:43;;;;;;;4.45;1.50;;;21.20;55.30;;;;;;5019194;28;20213;-73
2022/09/16 13:04:16;;;;;;;3.15;1.00;;;20.90;55.70;;;;;;5044889;28;20210;-75
2022/09/16 13:06:47;;;;;;;3.95;0.93;;;20.50;56.80;;;;;;5048572;28;20202;-74
2022/09/16 13:09:21;;;;;;;1.25;0.90;;;20.30;57.60;;;;;;5048505;28;20219;-73
2022/09/16 13:11:56;;;;;;;2.75;1.13;;;20.10;58.50;;;;;;5044614;28;20232;-75